createdAt,value
2023-08-08T00:00:38.161Z,3.53
2023-08-08T00:03:07.795Z,3.45
2023-08-08T00:05:36.878Z,5.35
2023-08-08T00:08:07.830Z,3.13
2023-08-08T00:10:36.820Z,3.10
2023-08-08T00:13:06.129Z,6.40
2023-08-08T00:15:35.244Z,2.92
2023-08-08T00:18:06.222Z,3.65
2023-08-08T00:20:35.155Z,3.95
2023-08-08T00:23:04.120Z,3.25
2023-08-08T00:25:33.021Z,4.07
2023-08-08T00:28:02.158Z,5.28
2023-08-08T00:30:31.098Z,3.45
2023-08-08T00:33:00.127Z,3.28
2023-08-08T00:35:30.481Z,4.53
2023-08-08T00:37:59.453Z,4.00
2023-08-08T00:40:28.568Z,3.33
2023-08-08T00:42:57.516Z,5.47
2023-08-08T00:45:26.632Z,5.32
2023-08-08T00:47:56.104Z,3.78
2023-08-08T00:50:25.764Z,4.47
2023-08-08T00:52:56.397Z,5.57
2023-08-08T00:55:25.714Z,4.75
2023-08-08T00:57:55.334Z,4.40
2023-08-08T01:00:25.600Z,3.50
2023-08-08T01:02:55.429Z,4.32
2023-08-08T01:05:25.032Z,5.22
2023-08-08T01:08:05.055Z,3.33
2023-08-08T01:10:38.281Z,4.28
2023-08-08T01:13:12.614Z,4.68
2023-08-08T01:15:42.554Z,3.75
2023-08-08T01:18:12.858Z,6.03
2023-08-08T01:20:42.619Z,3.63
2023-08-08T01:23:18.504Z,4.97
2023-08-08T01:25:50.370Z,3.00
2023-08-08T01:28:23.798Z,5.43
2023-08-08T01:30:53.198Z,3.25
2023-08-08T01:33:23.439Z,6.60
2023-08-08T01:35:58.452Z,2.97
2023-08-08T01:41:01.751Z,4.68
2023-08-08T01:43:32.331Z,4.60
2023-08-08T01:46:04.059Z,2.88
2023-08-08T01:48:33.333Z,5.30
2023-08-08T01:51:02.427Z,5.30
2023-08-08T01:53:31.605Z,2.97
2023-08-08T01:56:01.982Z,5.85
2023-08-08T01:58:31.933Z,3.15
2023-08-08T02:01:02.030Z,3.13
2023-08-08T02:03:31.093Z,4.18
2023-08-08T02:06:00.277Z,4.13
2023-08-08T02:08:29.394Z,3.17
2023-08-08T02:10:58.522Z,3.08
2023-08-08T02:13:28.867Z,2.33
2023-08-08T02:15:57.976Z,4.63
2023-08-08T02:18:26.925Z,3.35
2023-08-08T02:20:56.398Z,2.50
2023-08-08T02:23:25.436Z,2.85
2023-08-08T02:25:54.457Z,2.75
2023-08-08T02:28:24.010Z,2.20
2023-08-08T02:30:55.387Z,5.70
2023-08-08T02:33:24.361Z,2.67
2023-08-08T02:35:57.511Z,2.75
2023-08-08T02:38:26.751Z,3.53
2023-08-08T02:40:55.700Z,3.92
2023-08-08T02:43:24.816Z,2.90
2023-08-08T02:45:55.338Z,4.05
2023-08-08T02:48:24.511Z,4.28
2023-08-08T02:50:53.550Z,5.15
2023-08-08T02:53:25.508Z,5.28
2023-08-08T02:55:54.541Z,3.00
2023-08-08T02:58:23.709Z,5.68
2023-08-08T03:00:55.412Z,3.25
2023-08-08T03:03:25.189Z,4.78
2023-08-08T03:05:54.648Z,3.15
2023-08-08T03:08:23.669Z,5.88
2023-08-08T03:10:52.925Z,5.90
2023-08-08T03:13:23.708Z,4.72
2023-08-08T03:15:55.150Z,3.78
2023-08-08T03:18:27.072Z,3.80
2023-08-08T03:20:56.836Z,5.25
2023-08-08T03:23:26.637Z,2.95
2023-08-08T03:25:56.089Z,5.65
2023-08-08T03:28:28.077Z,2.45
2023-08-08T03:31:00.391Z,5.13
2023-08-08T03:33:31.295Z,3.28
2023-08-08T03:36:01.620Z,3.65
2023-08-08T03:38:31.280Z,9.88
2023-08-08T03:41:00.242Z,3.58
2023-08-08T03:43:29.528Z,5.13
2023-08-08T03:46:00.578Z,3.58
2023-08-08T03:48:29.579Z,5.05
2023-08-08T03:50:59.465Z,2.40
2023-08-08T03:53:28.573Z,4.75
2023-08-08T03:56:00.790Z,4.88
2023-08-08T03:58:30.158Z,8.32
2023-08-08T04:01:00.672Z,4.75
2023-08-08T04:03:29.930Z,3.13
2023-08-08T04:05:59.190Z,5.97
2023-08-08T04:08:28.163Z,5.43
2023-08-08T04:10:57.161Z,3.22
2023-08-08T04:13:26.166Z,3.47
2023-08-08T04:15:55.210Z,5.88
2023-08-08T04:18:25.615Z,2.97
2023-08-08T04:20:54.720Z,7.07
2023-08-08T04:23:26.649Z,4.10
2023-08-08T04:25:55.915Z,5.60
2023-08-08T04:28:24.995Z,10.65
2023-08-08T04:30:54.066Z,6.88
2023-08-08T04:33:23.120Z,10.90
2023-08-08T04:35:53.433Z,9.80
2023-08-08T04:38:22.382Z,22.35
2023-08-08T04:40:51.314Z,10.43
2023-08-08T04:43:20.247Z,2.92
2023-08-08T04:45:49.229Z,5.90
2023-08-08T04:48:18.336Z,5.65
2023-08-08T04:50:48.869Z,7.72
2023-08-08T04:53:19.197Z,27.25
2023-08-08T04:55:48.751Z,9.07
2023-08-08T04:58:17.777Z,16.05
2023-08-08T05:00:47.725Z,4.00
2023-08-08T05:03:16.791Z,4.57
2023-08-08T05:05:46.822Z,9.45
2023-08-08T05:08:16.529Z,7.38
2023-08-08T05:10:48.153Z,6.60
2023-08-08T05:13:23.215Z,15.13
2023-08-08T05:15:52.351Z,5.50
2023-08-08T05:18:21.652Z,7.18
2023-08-08T05:20:51.013Z,6.80
2023-08-08T05:23:20.169Z,5.82
2023-08-08T05:25:50.720Z,5.13
2023-08-08T05:28:19.863Z,5.18
2023-08-08T05:30:49.349Z,4.88
2023-08-08T05:33:18.583Z,7.35
2023-08-08T05:35:47.650Z,8.15
2023-08-08T05:38:16.851Z,6.97
2023-08-08T05:40:46.142Z,5.72
2023-08-08T05:43:19.558Z,3.40
2023-08-08T05:45:50.150Z,8.40
2023-08-08T05:48:19.549Z,5.80
2023-08-08T05:50:48.884Z,5.05
2023-08-08T05:53:18.248Z,5.63
2023-08-08T05:55:47.528Z,5.38
2023-08-08T05:58:18.457Z,9.25
2023-08-08T06:00:47.692Z,4.82
2023-08-08T06:03:17.172Z,5.80
2023-08-08T06:05:46.179Z,4.72
2023-08-08T06:08:17.333Z,4.47
2023-08-08T06:10:46.478Z,4.28
2023-08-08T06:13:15.945Z,4.63
2023-08-08T06:15:46.548Z,5.03
2023-08-08T06:18:16.607Z,3.60
2023-08-08T06:20:45.919Z,4.93
2023-08-08T06:23:16.435Z,7.63
2023-08-08T06:25:45.623Z,3.90
2023-08-08T06:28:14.658Z,3.72
2023-08-08T06:30:43.809Z,6.22
2023-08-08T06:33:14.480Z,5.15
2023-08-08T06:35:44.698Z,6.03
2023-08-08T06:38:13.870Z,6.43
2023-08-08T06:40:43.547Z,4.28
2023-08-08T06:43:13.075Z,7.13
2023-08-08T06:45:42.394Z,5.85
2023-08-08T06:48:11.812Z,2.88
2023-08-08T06:50:42.742Z,3.15
2023-08-08T06:53:12.132Z,3.42
2023-08-08T06:55:41.570Z,6.10
2023-08-08T06:58:11.154Z,6.18
2023-08-08T07:00:41.183Z,7.95
2023-08-08T07:03:10.890Z,5.05
2023-08-08T07:05:42.038Z,5.25
2023-08-08T07:08:12.020Z,7.75
2023-08-08T07:10:42.983Z,5.50
2023-08-08T07:13:12.747Z,5.53
2023-08-08T07:15:42.518Z,4.38
2023-08-08T07:18:12.088Z,3.92
2023-08-08T07:20:43.061Z,4.03
2023-08-08T07:23:12.800Z,5.30
2023-08-08T07:25:42.382Z,5.18
2023-08-08T07:28:12.260Z,7.57
2023-08-08T07:30:42.070Z,4.50
2023-08-08T07:33:11.641Z,3.92
2023-08-08T07:35:43.316Z,6.93
2023-08-08T07:38:13.028Z,3.90
2023-08-08T07:40:42.856Z,7.22
2023-08-08T07:43:12.487Z,3.55
2023-08-08T07:45:42.470Z,7.32
2023-08-08T07:48:12.111Z,4.35
2023-08-08T07:50:43.506Z,3.80
2023-08-08T07:53:13.727Z,6.47
2023-08-08T07:55:43.665Z,5.38
2023-08-08T07:58:13.753Z,9.25
2023-08-08T08:00:55.684Z,6.43
2023-08-08T08:03:31.178Z,3.85
2023-08-08T08:06:03.574Z,4.57
2023-08-08T08:08:34.040Z,6.00
2023-08-08T08:11:04.991Z,4.10
2023-08-08T08:13:34.528Z,3.88
2023-08-08T08:16:04.510Z,6.80
2023-08-08T08:18:35.083Z,7.72
2023-08-08T08:21:06.565Z,6.45
2023-08-08T08:23:38.721Z,6.45
2023-08-08T08:26:08.822Z,5.00
2023-08-08T08:28:38.544Z,6.30
2023-08-08T08:31:11.803Z,6.97
2023-08-08T08:33:41.709Z,5.43
2023-08-08T08:36:17.037Z,7.07
2023-08-08T08:38:48.680Z,5.68
2023-08-08T08:41:23.341Z,7.35
2023-08-08T08:43:53.377Z,5.93
2023-08-08T08:46:26.432Z,5.43
2023-08-08T08:48:58.693Z,5.60
2023-08-08T08:51:32.951Z,8.00
2023-08-08T08:54:02.625Z,7.07
2023-08-08T08:56:34.250Z,5.75
2023-08-08T08:59:04.827Z,4.53
2023-08-08T09:01:35.534Z,6.28
2023-08-08T09:04:11.229Z,8.18
2023-08-08T09:06:43.740Z,9.32
2023-08-08T09:09:16.856Z,5.30
2023-08-08T09:11:51.318Z,5.68
2023-08-08T09:14:25.490Z,7.57
2023-08-08T09:16:58.086Z,6.20
2023-08-08T09:19:30.797Z,5.47
2023-08-08T09:22:04.535Z,11.93
2023-08-08T09:24:35.402Z,9.05
2023-08-08T09:27:07.391Z,6.38
2023-08-08T09:29:41.570Z,7.60
2023-08-08T09:32:16.447Z,10.77
2023-08-08T09:34:49.643Z,8.93
2023-08-08T09:37:21.679Z,10.35
2023-08-08T09:39:59.954Z,7.88
2023-08-08T09:42:30.818Z,11.40
2023-08-08T09:45:06.309Z,13.07
2023-08-08T09:47:37.569Z,6.65
2023-08-08T09:50:09.523Z,6.13
2023-08-08T09:52:41.530Z,6.82
2023-08-08T09:55:13.637Z,7.13
2023-08-08T09:57:45.583Z,8.23
2023-08-08T10:00:18.402Z,7.88
2023-08-08T10:02:48.632Z,6.82
2023-08-08T10:05:19.973Z,8.43
2023-08-08T10:07:52.533Z,14.70
2023-08-08T10:10:28.844Z,6.30
2023-08-08T10:12:58.315Z,8.55
2023-08-08T10:15:29.788Z,12.20
2023-08-08T10:18:00.191Z,5.47
2023-08-08T10:20:29.808Z,10.32
2023-08-08T10:23:00.957Z,8.68
2023-08-08T10:25:32.921Z,7.15
2023-08-08T10:28:23.924Z,7.47
2023-08-08T10:30:56.589Z,5.90
2023-08-08T10:33:27.018Z,7.07
2023-08-08T10:36:04.669Z,5.68
2023-08-08T10:38:45.947Z,5.50
2023-08-08T10:41:17.028Z,5.90
2023-08-08T10:43:53.784Z,7.93
2023-08-08T10:46:27.448Z,7.32
2023-08-08T10:49:00.122Z,7.43
2023-08-08T10:51:37.732Z,8.57
2023-08-08T10:54:14.328Z,6.35
2023-08-08T10:56:49.774Z,9.52
2023-08-08T10:59:22.075Z,10.93
2023-08-08T11:01:54.724Z,11.65
2023-08-08T11:04:26.998Z,11.05
2023-08-08T11:06:56.690Z,9.77
2023-08-08T11:09:27.570Z,11.27
2023-08-08T11:11:56.824Z,9.75
2023-08-08T11:14:26.075Z,11.80
2023-08-08T11:16:55.339Z,11.45
2023-08-08T11:19:25.579Z,9.75
2023-08-08T11:21:54.913Z,12.57
2023-08-08T11:24:24.041Z,9.65
2023-08-08T11:27:01.481Z,11.48
2023-08-08T11:29:31.820Z,13.00
2023-08-08T11:32:03.388Z,11.55
2023-08-08T11:34:34.379Z,14.15
2023-08-08T11:37:03.906Z,12.13
2023-08-08T11:39:33.164Z,10.32
2023-08-08T11:42:04.375Z,11.77
2023-08-08T11:44:33.749Z,13.63
2023-08-08T11:47:04.372Z,15.15
2023-08-08T11:49:42.336Z,12.13
2023-08-08T11:52:11.787Z,12.15
2023-08-08T11:54:40.889Z,11.63
2023-08-08T11:57:11.650Z,13.65
2023-08-08T11:59:40.859Z,14.73
2023-08-08T12:02:11.670Z,16.45
2023-08-08T12:04:40.725Z,11.38
2023-08-08T12:07:09.727Z,15.85
2023-08-08T12:09:39.789Z,18.67
2023-08-08T12:12:11.239Z,13.48
2023-08-08T12:14:51.162Z,14.43
2023-08-08T12:17:26.299Z,11.27
2023-08-08T12:19:55.422Z,16.75
2023-08-08T12:22:24.698Z,13.13
2023-08-08T12:24:54.213Z,11.82
2023-08-08T12:27:24.727Z,10.02
2023-08-08T12:29:54.374Z,12.90
2023-08-08T12:32:24.867Z,9.60
2023-08-08T12:34:54.055Z,12.00
2023-08-08T12:37:24.410Z,9.77
2023-08-08T12:39:53.864Z,11.40
2023-08-08T12:42:24.308Z,11.52
2023-08-08T12:44:53.556Z,11.50
2023-08-08T12:47:22.891Z,9.70
2023-08-08T12:49:51.988Z,12.75
2023-08-08T12:52:21.153Z,11.30
2023-08-08T12:54:50.205Z,8.48
2023-08-08T12:57:19.254Z,12.35
2023-08-08T12:59:49.680Z,10.07
2023-08-08T13:02:18.893Z,9.13
2023-08-08T13:04:47.939Z,9.45
2023-08-08T13:07:17.085Z,8.55
2023-08-08T13:09:46.096Z,8.60
2023-08-08T13:12:15.218Z,9.43
2023-08-08T13:14:44.286Z,7.93
2023-08-08T13:17:14.769Z,13.50
2023-08-08T13:19:44.059Z,8.02
2023-08-08T13:22:13.751Z,7.82
2023-08-08T13:24:42.988Z,10.70
2023-08-08T13:27:12.385Z,6.63
2023-08-08T13:29:41.887Z,9.70
2023-08-08T13:32:11.046Z,8.10
2023-08-08T13:34:41.456Z,6.63
2023-08-08T13:37:10.431Z,12.73
2023-08-08T13:39:39.505Z,9.20
2023-08-08T13:45:00.229Z,11.05
2023-08-08T13:47:29.238Z,11.05
2023-08-08T13:49:59.642Z,14.70
2023-08-08T13:52:29.893Z,8.10
2023-08-08T13:54:58.915Z,7.35
2023-08-08T13:57:28.193Z,12.15
2023-08-08T13:59:57.182Z,9.80
2023-08-08T14:02:26.420Z,12.00
2023-08-08T14:04:55.501Z,12.73
2023-08-08T14:07:26.037Z,10.05
2023-08-08T14:09:55.180Z,9.07
2023-08-08T14:12:24.358Z,12.57
2023-08-08T14:14:53.564Z,10.07
2023-08-08T14:17:22.636Z,21.33
2023-08-08T14:19:51.634Z,10.73
2023-08-08T14:22:20.687Z,13.35
2023-08-08T14:24:51.202Z,14.23
2023-08-08T14:27:20.312Z,10.85
2023-08-08T14:29:49.246Z,11.18
2023-08-08T14:32:18.398Z,10.95
2023-08-08T14:34:47.524Z,11.40
2023-08-08T14:37:16.859Z,14.80
2023-08-08T14:39:45.878Z,19.88
2023-08-08T14:42:16.740Z,12.65
2023-08-08T14:44:45.764Z,12.05
2023-08-08T14:47:14.866Z,11.13
2023-08-08T14:49:43.892Z,16.92
2023-08-08T14:52:13.760Z,15.20
2023-08-08T14:54:42.822Z,10.80
2023-08-08T14:57:12.058Z,11.43
2023-08-08T14:59:42.585Z,18.05
2023-08-08T15:02:11.673Z,18.10
2023-08-08T15:04:40.731Z,16.60
2023-08-08T15:07:09.811Z,11.07
2023-08-08T15:09:39.809Z,16.05
2023-08-08T15:12:09.369Z,11.90
2023-08-08T15:14:38.401Z,12.32
2023-08-08T15:17:08.832Z,11.75
2023-08-08T15:19:39.372Z,10.07
2023-08-08T15:22:08.830Z,10.25
2023-08-08T15:24:37.907Z,8.57
2023-08-08T15:27:07.725Z,14.70
2023-08-08T15:29:38.958Z,12.65
2023-08-08T15:32:09.708Z,12.52
2023-08-08T15:34:38.772Z,13.18
2023-08-08T15:37:07.865Z,10.27
2023-08-08T15:39:37.010Z,18.38
2023-08-08T15:42:06.095Z,12.95
2023-08-08T15:44:35.334Z,17.58
2023-08-08T15:47:04.592Z,10.95
2023-08-08T15:49:35.492Z,11.65
2023-08-08T15:52:04.698Z,12.13
2023-08-08T15:54:33.730Z,15.85
2023-08-08T15:57:03.685Z,12.13
2023-08-08T15:59:33.248Z,18.08
2023-08-08T16:02:02.301Z,15.73
2023-08-08T16:04:32.454Z,16.25
2023-08-08T16:07:03.232Z,15.65
2023-08-08T16:09:32.653Z,15.27
2023-08-08T16:12:01.697Z,18.63
2023-08-08T16:14:30.758Z,16.88
2023-08-08T16:17:01.127Z,13.18
2023-08-08T16:19:30.495Z,12.82
2023-08-08T16:21:59.620Z,10.20
2023-08-08T16:24:30.010Z,23.85
2023-08-08T16:26:59.077Z,15.27
2023-08-08T16:29:28.296Z,12.98
2023-08-08T16:31:57.339Z,12.80
2023-08-08T16:34:26.368Z,15.80
2023-08-08T16:36:55.441Z,12.05
2023-08-08T16:39:24.626Z,12.68
2023-08-08T16:41:59.775Z,15.40
2023-08-08T16:44:29.074Z,16.52
2023-08-08T16:46:58.187Z,11.82
2023-08-08T16:49:27.933Z,13.43
2023-08-08T16:52:00.745Z,16.58
2023-08-08T16:54:30.336Z,16.50
2023-08-08T16:57:00.902Z,17.85
2023-08-08T16:59:30.554Z,18.35
2023-08-08T17:02:07.036Z,22.13
2023-08-08T17:04:36.072Z,19.45
2023-08-08T17:07:05.169Z,25.95
2023-08-08T17:09:34.743Z,17.92
2023-08-08T17:12:05.912Z,16.58
2023-08-08T17:14:35.623Z,21.15
2023-08-08T17:17:05.148Z,28.42
2023-08-08T17:19:34.304Z,25.98
2023-08-08T17:22:03.892Z,24.30
2023-08-08T17:24:36.597Z,26.23
2023-08-08T17:27:09.572Z,23.23
2023-08-08T17:29:38.648Z,17.05
2023-08-08T17:32:06.912Z,19.92
2023-08-08T17:34:36.173Z,19.45
2023-08-08T17:37:05.410Z,19.52
2023-08-08T17:39:34.574Z,18.00
2023-08-08T17:42:04.478Z,16.30
2023-08-08T17:44:51.772Z,15.95
2023-08-08T17:47:41.431Z,17.83
2023-08-08T17:50:11.002Z,8.80
2023-08-08T17:52:40.075Z,9.68
2023-08-08T17:55:10.837Z,10.77
2023-08-08T17:57:39.855Z,7.00
2023-08-08T18:00:11.743Z,6.93
2023-08-08T18:02:41.235Z,6.95
2023-08-08T18:05:10.741Z,4.25
2023-08-08T18:07:38.805Z,3.60
2023-08-08T18:10:09.358Z,4.60
2023-08-08T18:12:38.479Z,4.65
2023-08-08T18:15:08.642Z,3.90
2023-08-08T18:17:39.345Z,5.90
2023-08-08T18:20:10.796Z,8.25
2023-08-08T18:22:39.933Z,8.13
2023-08-08T18:25:10.251Z,5.18
2023-08-08T18:27:39.437Z,3.30
2023-08-08T18:30:09.735Z,3.47
2023-08-08T18:32:40.384Z,4.72
2023-08-08T18:35:10.135Z,7.93
2023-08-08T18:37:40.439Z,6.00
2023-08-08T18:40:12.770Z,7.03
2023-08-08T18:42:42.317Z,5.22
2023-08-08T18:45:12.625Z,5.32
2023-08-08T18:47:43.376Z,5.32
2023-08-08T18:50:13.094Z,7.80
2023-08-08T18:52:42.190Z,4.45
2023-08-08T18:55:11.264Z,4.53
2023-08-08T18:57:40.373Z,3.67
2023-08-08T19:00:10.282Z,2.88
2023-08-08T19:02:39.361Z,4.68
2023-08-08T19:05:10.594Z,4.50
2023-08-08T19:07:39.762Z,4.13
2023-08-08T19:10:09.730Z,2.72
2023-08-08T19:12:39.055Z,3.15
2023-08-08T19:15:09.496Z,3.35
2023-08-08T19:17:53.666Z,6.15
2023-08-08T19:20:26.494Z,5.43
2023-08-08T19:22:57.310Z,3.15
2023-08-08T19:25:26.471Z,2.92
2023-08-08T19:27:55.613Z,3.72
2023-08-08T19:30:25.241Z,6.50
2023-08-08T19:32:54.386Z,4.63
2023-08-08T19:35:23.494Z,4.72
2023-08-08T19:37:53.875Z,4.60
2023-08-08T19:40:22.977Z,3.22
2023-08-08T19:42:54.865Z,4.28
2023-08-08T19:45:24.131Z,3.13
2023-08-08T19:47:53.297Z,4.53
2023-08-08T19:50:22.456Z,3.90
2023-08-08T19:52:51.647Z,2.88
2023-08-08T19:55:22.231Z,5.45
2023-08-08T19:57:51.300Z,2.58
2023-08-08T20:00:21.410Z,4.60
2023-08-08T20:02:53.627Z,2.22
2023-08-08T20:05:23.055Z,3.03
2023-08-08T20:07:53.452Z,2.38
2023-08-08T20:10:26.461Z,4.72
2023-08-08T20:12:55.840Z,3.33
2023-08-08T20:15:24.852Z,4.88
2023-08-08T20:17:54.392Z,4.78
2023-08-08T20:20:24.034Z,2.47
2023-08-08T20:22:53.073Z,4.28
2023-08-08T20:25:22.136Z,3.85
2023-08-08T20:27:51.576Z,3.92
2023-08-08T20:30:20.630Z,8.50
2023-08-08T20:32:49.771Z,4.60
2023-08-08T20:35:18.930Z,2.97
2023-08-08T20:37:47.973Z,4.40
2023-08-08T20:40:17.092Z,5.60
2023-08-08T20:42:46.139Z,4.07
2023-08-08T20:45:16.588Z,2.85
2023-08-08T20:47:45.595Z,3.60
2023-08-08T20:50:14.631Z,5.10
2023-08-08T20:52:44.828Z,4.18
2023-08-08T20:55:14.100Z,3.60
2023-08-08T20:57:43.075Z,7.60
2023-08-08T21:00:13.057Z,3.35
2023-08-08T21:02:43.755Z,4.97
2023-08-08T21:05:12.793Z,2.88
2023-08-08T21:07:41.831Z,2.83
2023-08-08T21:10:11.764Z,3.45
2023-08-08T21:12:40.814Z,6.22
2023-08-08T21:15:10.522Z,2.42
2023-08-08T21:17:44.038Z,6.32
2023-08-08T21:20:14.881Z,5.95
2023-08-08T21:22:44.077Z,5.47
2023-08-08T21:25:13.680Z,6.65
2023-08-08T21:27:42.628Z,3.85
2023-08-08T21:30:12.640Z,4.53
2023-08-08T21:32:41.682Z,4.45
2023-08-08T21:35:10.964Z,2.80
2023-08-08T21:37:41.488Z,4.38
2023-08-08T21:40:11.364Z,6.60
2023-08-08T21:42:40.619Z,5.20
2023-08-08T21:45:10.559Z,5.40
2023-08-08T21:47:40.447Z,4.43
2023-08-08T21:50:10.272Z,5.88
2023-08-08T21:52:40.610Z,4.95
2023-08-08T21:55:10.267Z,3.40
2023-08-08T21:57:40.168Z,3.03
2023-08-08T22:00:14.431Z,6.22
2023-08-08T22:02:45.092Z,3.53
2023-08-08T22:05:14.157Z,4.55
2023-08-08T22:07:44.490Z,7.68
2023-08-08T22:10:13.837Z,9.63
2023-08-08T22:12:42.820Z,6.57
2023-08-08T22:15:12.853Z,3.83
2023-08-08T22:17:50.304Z,4.13
2023-08-08T22:20:26.287Z,7.10
2023-08-08T22:23:02.917Z,3.28
2023-08-08T22:25:38.325Z,3.63
2023-08-08T22:28:07.953Z,3.63
2023-08-08T22:30:37.190Z,6.25
2023-08-08T22:33:06.506Z,5.30
2023-08-08T22:35:35.556Z,4.97
2023-08-08T22:38:07.216Z,5.38
2023-08-08T22:40:36.135Z,6.57
2023-08-08T22:43:05.409Z,9.38
2023-08-08T22:45:34.313Z,9.55
2023-08-08T22:48:04.013Z,4.50
2023-08-08T22:50:33.195Z,7.95
2023-08-08T22:53:02.361Z,4.40
2023-08-08T22:55:34.013Z,5.38
2023-08-08T22:58:02.932Z,6.47
2023-08-08T23:00:32.328Z,5.60
2023-08-08T23:03:01.397Z,4.85
2023-08-08T23:05:30.392Z,4.70
2023-08-08T23:07:59.380Z,4.90
2023-08-08T23:10:28.321Z,5.30
2023-08-08T23:12:58.663Z,6.32
2023-08-08T23:15:27.921Z,4.20
2023-08-08T23:17:56.845Z,8.23
2023-08-08T23:20:25.993Z,7.50
2023-08-08T23:22:54.852Z,4.95
2023-08-08T23:25:26.260Z,8.43
2023-08-08T23:27:55.330Z,5.43
2023-08-08T23:30:26.055Z,4.40
2023-08-08T23:32:55.287Z,6.88
2023-08-08T23:35:24.793Z,5.57
2023-08-08T23:37:53.842Z,4.32
2023-08-08T23:40:23.781Z,4.90
2023-08-08T23:42:52.743Z,5.82
2023-08-08T23:45:21.769Z,4.47
2023-08-08T23:47:52.305Z,6.07
2023-08-08T23:50:21.513Z,4.28
2023-08-08T23:52:50.570Z,4.65
2023-08-08T23:55:19.552Z,6.65
2023-08-08T23:57:48.767Z,5.25
